createdAt,value
2018-12-09T00:00:38.554Z,97101.62
2018-12-09T00:03:07.602Z,97091.41
2018-12-09T00:05:36.354Z,97083.89
2018-12-09T00:08:04.920Z,97081.48
2018-12-09T00:10:33.725Z,97076.20
2018-12-09T00:13:03.508Z,97076.59
2018-12-09T00:15:32.210Z,97073.62
2018-12-09T00:18:01.387Z,97070.48
2018-12-09T00:20:30.220Z,97063.20
2018-12-09T00:23:03.272Z,97055.42
2018-12-09T00:25:31.721Z,97047.22
2018-12-09T00:28:00.894Z,97071.93
2018-12-09T00:30:29.765Z,97047.81
2018-12-09T00:32:59.227Z,97039.34
2018-12-09T00:35:28.578Z,97027.39
2018-12-09T00:37:57.814Z,97032.75
2018-12-09T00:40:26.289Z,97023.77
2018-12-09T00:42:55.399Z,97018.31
2018-12-09T00:45:23.910Z,97023.94
2018-12-09T00:47:52.373Z,97027.13
2018-12-09T00:50:21.167Z,97032.20
2018-12-09T00:52:50.353Z,97048.67
2018-12-09T00:55:19.282Z,97044.28
2018-12-09T00:57:48.131Z,97054.59
2018-12-09T01:00:17.141Z,97049.95
2018-12-09T01:02:46.720Z,97029.33
2018-12-09T01:05:15.429Z,97028.06
2018-12-09T01:07:43.884Z,97031.53
2018-12-09T01:10:12.320Z,97031.09
2018-12-09T01:12:40.781Z,97028.01
2018-12-09T01:15:10.861Z,97039.02
2018-12-09T01:17:39.820Z,97018.48
2018-12-09T01:20:09.020Z,97025.14
2018-12-09T01:22:38.224Z,97010.12
2018-12-09T01:25:07.586Z,97010.86
2018-12-09T01:27:36.879Z,97026.11
2018-12-09T01:30:06.191Z,97024.25
2018-12-09T01:32:36.324Z,97021.87
2018-12-09T01:35:07.534Z,97022.30
2018-12-09T01:37:36.892Z,97029.09
2018-12-09T01:40:06.186Z,97029.33
2018-12-09T01:42:39.306Z,97026.05
2018-12-09T01:45:08.199Z,97024.99
2018-12-09T01:47:36.966Z,97034.02
2018-12-09T01:50:05.770Z,97041.05
2018-12-09T01:52:34.525Z,97051.17
2018-12-09T01:55:04.026Z,97055.00
2018-12-09T01:57:32.458Z,97055.48
2018-12-09T02:00:00.987Z,97072.98
2018-12-09T02:02:29.773Z,97071.12
2018-12-09T02:04:59.676Z,97069.11
2018-12-09T02:07:28.120Z,97059.30
2018-12-09T02:09:56.581Z,97052.94
2018-12-09T02:12:25.495Z,97053.48
2018-12-09T02:14:53.958Z,97053.19
2018-12-09T02:17:22.555Z,97068.42
2018-12-09T02:19:51.398Z,97054.80
2018-12-09T02:22:19.950Z,97058.21
2018-12-09T02:24:48.491Z,97051.67
2018-12-09T02:27:17.041Z,97059.24
2018-12-09T02:29:45.514Z,97062.77
2018-12-09T02:32:13.953Z,97047.79
2018-12-09T02:34:52.450Z,97058.75
2018-12-09T02:37:20.913Z,97065.06
2018-12-09T02:39:50.312Z,97069.94
2018-12-09T02:42:19.124Z,97049.17
2018-12-09T02:44:48.402Z,97053.76
2018-12-09T02:47:16.843Z,97048.88
2018-12-09T02:49:45.301Z,97058.60
2018-12-09T02:52:13.842Z,97052.30
2018-12-09T02:54:42.529Z,97059.93
2018-12-09T02:57:10.957Z,97065.06
2018-12-09T02:59:40.055Z,97092.78
2018-12-09T03:02:08.534Z,97072.88
2018-12-09T03:04:37.100Z,97076.34
2018-12-09T03:07:05.575Z,97077.44
2018-12-09T03:09:34.250Z,97081.63
2018-12-09T03:12:03.562Z,97048.63
2018-12-09T03:14:31.985Z,97065.55
2018-12-09T03:17:00.451Z,97070.63
2018-12-09T03:19:29.447Z,97070.83
2018-12-09T03:21:57.930Z,97100.78
2018-12-09T03:24:26.378Z,97093.36
2018-12-09T03:26:55.198Z,97095.91
2018-12-09T03:29:24.877Z,97077.86
2018-12-09T03:31:53.403Z,97088.97
2018-12-09T03:34:22.737Z,97084.52
2018-12-09T03:36:52.219Z,97093.98
2018-12-09T03:39:20.654Z,97094.52
2018-12-09T03:41:49.353Z,97096.72
2018-12-09T03:44:17.780Z,97095.83
2018-12-09T03:46:46.241Z,97098.48
2018-12-09T03:49:15.973Z,97105.85
2018-12-09T03:51:44.441Z,97106.45
2018-12-09T03:54:12.889Z,97105.48
2018-12-09T03:56:41.367Z,97106.32
2018-12-09T03:59:12.546Z,97098.20
2018-12-09T04:01:41.385Z,97106.32
2018-12-09T04:04:10.049Z,97096.05
2018-12-09T04:06:38.550Z,97127.80
2018-12-09T04:09:07.634Z,97115.84
2018-12-09T04:11:36.102Z,97111.25
2018-12-09T04:14:04.794Z,97115.20
2018-12-09T04:16:34.095Z,97108.95
2018-12-09T04:19:02.777Z,97110.84
2018-12-09T04:21:32.136Z,97113.05
2018-12-09T04:24:01.085Z,97112.31
2018-12-09T04:26:29.638Z,97132.65
2018-12-09T04:28:58.107Z,97132.60
2018-12-09T04:31:26.561Z,97146.05
2018-12-09T04:33:55.446Z,97120.45
2018-12-09T04:36:24.221Z,97133.75
2018-12-09T04:38:53.695Z,97148.12
2018-12-09T04:41:22.910Z,97137.42
2018-12-09T04:43:51.920Z,97142.84
2018-12-09T04:46:22.090Z,97139.83
2018-12-09T04:48:50.936Z,97156.36
2018-12-09T04:51:19.484Z,97154.45
2018-12-09T04:53:47.940Z,97165.98
2018-12-09T04:56:16.874Z,97171.50
2018-12-09T04:59:23.371Z,97179.41
2018-12-09T05:01:52.485Z,97186.30
2018-12-09T05:04:22.289Z,97181.65
2018-12-09T05:06:50.781Z,97184.64
2018-12-09T05:09:19.467Z,97180.71
2018-12-09T05:11:49.045Z,97192.12
2018-12-09T05:14:17.965Z,97194.75
2018-12-09T05:16:47.063Z,97195.61
2018-12-09T05:19:15.531Z,97204.83
2018-12-09T05:21:43.967Z,97212.94
2018-12-09T05:24:12.460Z,97225.78
2018-12-09T05:26:42.058Z,97232.84
2018-12-09T05:29:10.986Z,97230.48
2018-12-09T05:31:39.546Z,97232.20
2018-12-09T05:34:08.004Z,97250.34
2018-12-09T05:36:37.085Z,97247.84
2018-12-09T05:39:06.647Z,97249.28
2018-12-09T05:41:35.530Z,97248.97
2018-12-09T05:44:04.110Z,97261.65
2018-12-09T05:46:33.068Z,97259.05
2018-12-09T05:49:01.530Z,97245.19
2018-12-09T05:51:30.263Z,97248.39
2018-12-09T05:53:58.985Z,97245.63
2018-12-09T05:56:28.594Z,97241.81
2018-12-09T05:58:57.062Z,97241.46
2018-12-09T06:01:25.488Z,97265.75
2018-12-09T06:03:54.200Z,97282.98
2018-12-09T06:06:22.761Z,97287.66
2018-12-09T06:08:52.463Z,97292.68
2018-12-09T06:11:21.910Z,97290.66
2018-12-09T06:13:50.406Z,97259.91
2018-12-09T06:16:19.086Z,97253.46
2018-12-09T06:18:47.593Z,97249.78
2018-12-09T06:21:17.228Z,97263.28
2018-12-09T06:23:45.709Z,97264.70
2018-12-09T06:26:14.258Z,97270.31
2018-12-09T06:28:43.076Z,97283.48
2018-12-09T06:31:12.710Z,97267.47
2018-12-09T06:33:41.155Z,97271.27
2018-12-09T06:36:10.231Z,97279.41
2018-12-09T06:38:38.671Z,97271.30
2018-12-09T06:41:07.373Z,97266.52
2018-12-09T06:43:35.786Z,97276.42
2018-12-09T06:46:04.829Z,97274.27
2018-12-09T06:48:33.651Z,97274.76
2018-12-09T06:51:02.334Z,97284.30
2018-12-09T06:53:30.775Z,97277.98
2018-12-09T06:56:14.892Z,97268.77
2018-12-09T06:58:44.923Z,97274.51
2018-12-09T07:01:30.837Z,97272.36
2018-12-09T07:04:06.866Z,97273.69
2018-12-09T07:12:01.703Z,97307.50
2018-12-09T07:14:31.068Z,97311.59
2018-12-09T07:17:08.117Z,97320.78
2018-12-09T07:19:36.642Z,97324.13
2018-12-09T07:22:05.110Z,97319.82
2018-12-09T07:25:02.211Z,97325.33
2018-12-09T07:27:32.940Z,97336.44
2018-12-09T07:30:03.652Z,97324.37
2018-12-09T07:32:38.201Z,97337.27
2018-12-09T07:35:09.692Z,97340.87
2018-12-09T07:37:38.897Z,97339.91
2018-12-09T07:40:10.164Z,97342.05
2018-12-09T07:42:43.943Z,97338.48
2018-12-09T07:45:13.926Z,97337.18
2018-12-09T07:47:42.913Z,97332.38
2018-12-09T07:50:17.582Z,97338.38
2018-12-09T07:52:48.369Z,97342.17
2018-12-09T07:55:19.382Z,97350.91
2018-12-09T07:57:48.579Z,97354.28
2018-12-09T08:00:19.781Z,97368.98
2018-12-09T08:02:54.689Z,97369.45
2018-12-09T08:05:27.163Z,97376.77
2018-12-09T08:08:01.280Z,97387.51
2018-12-09T08:10:52.785Z,97383.81
2018-12-09T08:13:22.652Z,97371.49
2018-12-09T08:15:52.851Z,97381.53
2018-12-09T08:18:27.001Z,97379.73
2018-12-09T08:20:56.962Z,97378.30
2018-12-09T08:23:25.438Z,97382.73
2018-12-09T08:25:59.791Z,97384.39
2018-12-09T08:28:28.319Z,97391.59
2018-12-09T08:30:58.437Z,97391.83
2018-12-09T08:33:28.777Z,97393.87
2018-12-09T08:36:00.775Z,97395.15
2018-12-09T08:38:30.711Z,97401.87
2018-12-09T08:41:01.613Z,97400.66
2018-12-09T08:43:38.616Z,97395.28
2018-12-09T08:46:33.038Z,97394.83
2018-12-09T08:49:04.901Z,97403.91
2018-12-09T08:51:35.521Z,97411.08
2018-12-09T08:54:07.355Z,97415.52
2018-12-09T08:56:38.512Z,97422.56
2018-12-09T08:59:10.092Z,97413.95
2018-12-09T09:01:41.485Z,97417.17
2018-12-09T09:04:19.502Z,97416.82
2018-12-09T09:06:48.416Z,97415.86
2018-12-09T09:09:22.172Z,97433.45
2018-12-09T09:11:53.634Z,97432.27
2018-12-09T09:14:23.097Z,97426.16
2018-12-09T09:16:51.530Z,97422.78
2018-12-09T09:19:29.197Z,97424.09
2018-12-09T09:22:02.144Z,97432.25
2018-12-09T09:24:39.171Z,97422.91
2018-12-09T09:27:11.476Z,97432.61
2018-12-09T09:29:44.265Z,97431.77
2018-12-09T09:32:20.730Z,97433.92
2018-12-09T09:34:51.941Z,97436.43
2018-12-09T09:37:28.687Z,97447.80
2018-12-09T09:39:57.366Z,97451.03
2018-12-09T09:42:32.922Z,97459.06
2018-12-09T09:45:07.604Z,97464.67
2018-12-09T09:47:39.763Z,97468.98
2018-12-09T09:50:13.241Z,97481.94
2018-12-09T09:52:45.749Z,97469.36
2018-12-09T09:55:15.760Z,97472.95
2018-12-09T09:57:44.214Z,97483.37
2018-12-09T10:00:13.582Z,97479.77
2018-12-09T10:02:42.744Z,97478.36
2018-12-09T10:05:13.477Z,97477.14
2018-12-09T10:07:42.758Z,97492.11
2018-12-09T10:10:13.333Z,97478.45
2018-12-09T10:12:41.892Z,97479.66
2018-12-09T10:15:10.347Z,97486.97
2018-12-09T10:17:42.903Z,97481.09
2018-12-09T10:20:13.028Z,97487.56
2018-12-09T10:22:42.731Z,97478.48
2018-12-09T10:25:11.760Z,97479.41
2018-12-09T10:27:41.007Z,97489.97
2018-12-09T10:30:10.551Z,97498.70
2018-12-09T10:32:39.236Z,97489.95
2018-12-09T10:35:16.563Z,97498.12
2018-12-09T10:37:48.635Z,97491.77
2018-12-09T10:40:20.386Z,97504.82
2018-12-09T10:42:49.721Z,97519.06
2018-12-09T10:45:19.680Z,97516.29
2018-12-09T10:47:51.664Z,97509.96
2018-12-09T10:50:21.270Z,97514.14
2018-12-09T10:52:51.682Z,97516.18
2018-12-09T10:55:20.335Z,97514.40
2018-12-09T10:57:48.797Z,97516.18
2018-12-09T11:00:19.274Z,97510.08
2018-12-09T11:02:47.968Z,97506.48
2018-12-09T11:05:17.468Z,97501.09
2018-12-09T11:07:46.046Z,97522.89
2018-12-09T11:10:14.511Z,97509.25
2018-12-09T11:12:44.058Z,97520.12
2018-12-09T11:15:13.340Z,97513.31
2018-12-09T11:17:41.823Z,97527.20
2018-12-09T11:20:10.501Z,97517.85
2018-12-09T11:22:40.040Z,97517.00
2018-12-09T11:25:08.837Z,97531.61
2018-12-09T11:27:38.627Z,97534.38
2018-12-09T11:30:08.414Z,97531.48
2018-12-09T11:32:37.564Z,97524.91
2018-12-09T11:35:06.696Z,97520.00
2018-12-09T11:37:35.351Z,97514.73
2018-12-09T11:40:05.320Z,97519.52
2018-12-09T11:42:34.510Z,97507.56
2018-12-09T11:45:04.691Z,97514.97
2018-12-09T11:47:33.876Z,97519.65
2018-12-09T11:50:02.327Z,97513.80
2018-12-09T11:52:30.761Z,97509.13
2018-12-09T11:55:00.260Z,97516.43
2018-12-09T11:57:28.924Z,97505.53
2018-12-09T11:59:57.379Z,97512.95
2018-12-09T12:02:25.814Z,97512.34
2018-12-09T12:04:54.281Z,97521.68
2018-12-09T12:07:23.083Z,97521.70
2018-12-09T12:09:52.144Z,97523.94
2018-12-09T12:12:21.538Z,97525.98
2018-12-09T12:14:50.461Z,97526.81
2018-12-09T12:17:19.124Z,97537.34
2018-12-09T12:19:48.116Z,97531.96
2018-12-09T12:22:16.558Z,97535.65
2018-12-09T12:24:45.051Z,97533.14
2018-12-09T12:27:13.493Z,97533.70
2018-12-09T12:29:41.954Z,97534.91
2018-12-09T12:32:10.389Z,97533.59
2018-12-09T12:34:38.858Z,97526.17
2018-12-09T12:37:08.260Z,97529.88
2018-12-09T12:39:36.755Z,97539.81
2018-12-09T12:42:05.325Z,97535.98
2018-12-09T12:44:38.786Z,97532.30
2018-12-09T12:47:07.336Z,97532.30
2018-12-09T12:49:36.291Z,97531.69
2018-12-09T12:52:05.636Z,97529.69
2018-12-09T12:54:35.039Z,97526.42
2018-12-09T12:57:03.466Z,97536.84
2018-12-09T12:59:31.918Z,97535.52
2018-12-09T13:02:00.733Z,97545.81
2018-12-09T13:04:29.428Z,97551.32
2018-12-09T13:06:59.109Z,97543.69
2018-12-09T13:09:27.571Z,97546.30
2018-12-09T13:11:57.074Z,97550.84
2018-12-09T13:14:27.682Z,97547.01
2018-12-09T13:16:57.841Z,97557.90
2018-12-09T13:19:28.166Z,97560.53
2018-12-09T13:22:06.991Z,97563.50
2018-12-09T13:24:41.933Z,97570.20
2018-12-09T13:27:11.615Z,97567.69
2018-12-09T13:29:42.831Z,97581.09
2018-12-09T13:32:11.420Z,97574.15
2018-12-09T13:34:40.622Z,97587.78
2018-12-09T13:37:10.641Z,97590.38
2018-12-09T13:39:41.943Z,97580.81
2018-12-09T13:42:13.168Z,97581.17
2018-12-09T13:44:42.406Z,97581.77
2018-12-09T13:47:11.733Z,97585.12
2018-12-09T13:49:45.230Z,97593.25
2018-12-09T13:52:16.455Z,97611.35
2018-12-09T13:54:45.915Z,97615.18
2018-12-09T13:57:16.314Z,97638.27
2018-12-09T13:59:46.438Z,97639.19
2018-12-09T14:02:16.481Z,97659.72
2018-12-09T14:04:48.765Z,97673.06
2018-12-09T14:07:17.835Z,97675.80
2018-12-09T14:09:47.312Z,97691.65
2018-12-09T14:12:20.646Z,97688.70
2018-12-09T14:14:49.480Z,97693.91
2018-12-09T14:17:18.777Z,97696.00
2018-12-09T14:19:50.258Z,97707.36
2018-12-09T14:22:20.165Z,97718.60
2018-12-09T14:24:51.645Z,97728.63
2018-12-09T14:27:23.345Z,97722.19
2018-12-09T14:29:58.890Z,97726.91
2018-12-09T14:32:32.288Z,97741.83
2018-12-09T14:35:06.695Z,97743.75
2018-12-09T14:37:38.137Z,97745.96
2018-12-09T14:40:12.212Z,97749.29
2018-12-09T14:42:44.760Z,97771.97
2018-12-09T14:45:19.794Z,97762.02
2018-12-09T14:47:51.309Z,97770.70
2018-12-09T14:50:21.534Z,97777.09
2018-12-09T14:52:52.945Z,97787.69
2018-12-09T14:55:25.330Z,97793.82
2018-12-09T14:57:54.813Z,97800.61
2018-12-09T15:00:26.600Z,97805.42
2018-12-09T15:02:58.582Z,97802.42
2018-12-09T15:05:32.362Z,97817.83
2018-12-09T15:08:02.555Z,97821.87
2018-12-09T15:10:35.121Z,97824.03
2018-12-09T15:13:08.141Z,97830.97
2018-12-09T15:15:39.268Z,97829.66
2018-12-09T15:18:11.069Z,97834.54
2018-12-09T15:20:42.248Z,97842.78
2018-12-09T15:23:11.590Z,97847.41
2018-12-09T15:25:42.449Z,97854.56
2018-12-09T15:28:13.324Z,97846.95
2018-12-09T15:30:44.293Z,97860.46
2018-12-09T15:33:15.743Z,97875.02
2018-12-09T15:35:44.445Z,97889.56
2018-12-09T15:38:18.837Z,97880.64
2018-12-09T15:40:51.196Z,97885.73
2018-12-09T15:43:24.213Z,97891.83
2018-12-09T15:45:55.972Z,97888.27
2018-12-09T15:48:28.114Z,97904.77
2018-12-09T15:51:05.564Z,97907.95
2018-12-09T15:53:34.232Z,97898.52
2018-12-09T15:56:07.740Z,97912.86
2018-12-09T15:58:39.824Z,97909.28
2018-12-09T16:01:11.628Z,97910.53
2018-12-09T16:03:43.894Z,97915.22
2018-12-09T16:06:24.517Z,97926.77
2018-12-09T16:08:54.442Z,97925.27
2018-12-09T16:11:30.753Z,97944.69
2018-12-09T16:14:03.956Z,97941.39
2018-12-09T16:16:36.184Z,97957.81
2018-12-09T16:19:09.713Z,97950.88
2018-12-09T16:21:40.660Z,97945.16
2018-12-09T16:24:10.110Z,97944.99
2018-12-09T16:26:51.562Z,97954.17
2018-12-09T16:29:20.485Z,97956.33
2018-12-09T16:31:50.605Z,97963.66
2018-12-09T16:34:19.233Z,97973.02
2018-12-09T16:36:48.054Z,97979.04
2018-12-09T16:39:16.610Z,97988.30
2018-12-09T16:41:46.673Z,97994.13
2018-12-09T16:44:17.368Z,97986.06
2018-12-09T16:46:53.416Z,97988.86
2018-12-09T16:49:29.595Z,97996.19
2018-12-09T16:52:07.443Z,98001.71
2018-12-09T16:54:41.505Z,98019.32
2018-12-09T16:57:10.926Z,98023.56
2018-12-09T16:59:42.051Z,98034.22
2018-12-09T17:02:16.673Z,98035.08
2018-12-09T17:04:47.490Z,98046.63
2018-12-09T17:07:20.652Z,98053.08
2018-12-09T17:10:00.043Z,98063.88
2018-12-09T17:12:38.821Z,98060.98
2018-12-09T17:15:17.908Z,98066.31
2018-12-09T17:17:49.235Z,98068.30
2018-12-09T17:20:21.374Z,98070.80
2018-12-09T17:22:52.617Z,98081.78
2018-12-09T17:25:24.855Z,98086.01
2018-12-09T17:28:01.245Z,98100.82
2018-12-09T17:30:36.799Z,98099.25
2018-12-09T17:33:08.912Z,98114.63
2018-12-09T17:35:49.019Z,98096.23
2018-12-09T17:38:23.197Z,98117.41
2018-12-09T17:41:00.525Z,98123.41
2018-12-09T17:43:39.013Z,98119.64
2018-12-09T17:46:10.822Z,98126.77
2018-12-09T17:48:44.347Z,98132.58
2018-12-09T17:51:16.614Z,98143.67
2018-12-09T17:53:46.368Z,98139.54
2018-12-09T17:56:19.875Z,98151.77
2018-12-09T17:58:49.711Z,98160.77
2018-12-09T18:01:19.841Z,98159.47
2018-12-09T18:03:50.281Z,98159.63
2018-12-09T18:06:23.864Z,98164.26
2018-12-09T18:08:54.011Z,98169.31
2018-12-09T18:11:24.409Z,98167.27
2018-12-09T18:13:55.172Z,98174.48
2018-12-09T18:16:25.405Z,98176.94
2018-12-09T18:18:55.000Z,98185.92
2018-12-09T18:21:25.265Z,98205.72
2018-12-09T18:23:55.308Z,98203.20
2018-12-09T18:26:24.217Z,98207.99
2018-12-09T18:28:55.919Z,98211.67
2018-12-09T18:31:26.005Z,98218.63
2018-12-09T18:33:56.211Z,98219.12
2018-12-09T18:36:25.030Z,98225.12
2018-12-09T18:38:55.340Z,98238.16
2018-12-09T18:41:26.001Z,98249.44
2018-12-09T18:43:56.604Z,98250.21
2018-12-09T18:46:26.849Z,98250.95
2018-12-09T18:48:58.130Z,98249.45
2018-12-09T18:51:32.030Z,98255.28
2018-12-09T18:54:02.492Z,98257.45
2018-12-09T18:56:38.907Z,98271.61
2018-12-09T18:59:10.391Z,98276.23
2018-12-09T19:01:45.739Z,98290.77
2018-12-09T19:04:19.424Z,98292.66
2018-12-09T19:07:00.155Z,98295.55
2018-12-09T19:09:31.908Z,98312.02
2018-12-09T19:12:05.555Z,98321.03
2018-12-09T19:14:36.828Z,98332.87
2018-12-09T19:17:06.192Z,98326.29
2018-12-09T19:19:39.171Z,98323.76
2018-12-09T19:22:09.543Z,98329.19
2018-12-09T19:24:38.081Z,98338.80
2018-12-09T19:27:06.944Z,98341.60
2018-12-09T19:29:35.468Z,98349.02
2018-12-09T19:32:06.423Z,98354.58
2018-12-09T19:34:36.804Z,98360.11
2018-12-09T19:37:05.695Z,98365.95
2018-12-09T19:39:35.407Z,98359.91
2018-12-09T19:42:07.661Z,98366.39
2018-12-09T19:44:36.173Z,98377.39
2018-12-09T19:47:08.431Z,98377.48
2018-12-09T19:49:37.622Z,98382.34
2018-12-09T19:52:07.216Z,98385.66
2018-12-09T19:54:37.765Z,98396.45
2018-12-09T19:57:06.515Z,98397.78
2018-12-09T19:59:36.516Z,98409.20
2018-12-09T20:02:04.948Z,98411.20
2018-12-09T20:04:33.394Z,98420.06
2018-12-09T20:07:02.816Z,98422.03
2018-12-09T20:09:32.444Z,98420.34
2018-12-09T20:12:00.912Z,98424.09
2018-12-09T20:14:29.837Z,98444.40
2018-12-09T20:16:59.340Z,98444.88
2018-12-09T20:19:27.868Z,98446.28
2018-12-09T20:21:56.334Z,98445.88
2018-12-09T20:24:24.764Z,98450.12
2018-12-09T20:26:53.551Z,98457.16
2018-12-09T20:29:22.995Z,98456.03
2018-12-09T20:31:52.471Z,98457.03
2018-12-09T20:34:21.320Z,98460.61
2018-12-09T20:36:49.763Z,98465.05
2018-12-09T20:39:18.215Z,98473.29
2018-12-09T20:41:46.634Z,98476.39
2018-12-09T20:44:15.976Z,98479.05
2018-12-09T20:46:45.095Z,98506.64
2018-12-09T20:49:14.906Z,98509.23
2018-12-09T20:51:43.582Z,98521.34
2018-12-09T20:54:12.027Z,98534.27
2018-12-09T20:56:41.288Z,98539.09
2018-12-09T20:59:10.121Z,98551.95
2018-12-09T21:01:38.575Z,98557.17
2018-12-09T21:04:08.391Z,98564.19
2018-12-09T21:06:36.821Z,98573.30
2018-12-09T21:09:08.203Z,98571.56
2018-12-09T21:11:36.667Z,98567.45
2018-12-09T21:14:05.110Z,98578.06
2018-12-09T21:16:33.835Z,98575.91
2018-12-09T21:19:02.367Z,98578.06
2018-12-09T21:21:31.814Z,98584.58
2018-12-09T21:24:00.574Z,98578.49
2018-12-09T21:26:29.525Z,98572.02
2018-12-09T21:28:57.961Z,98569.94
2018-12-09T21:31:26.732Z,98586.52
2018-12-09T21:33:55.527Z,98585.03
2018-12-09T21:36:25.524Z,98590.77
2018-12-09T21:38:53.942Z,98590.00
2018-12-09T21:41:22.437Z,98602.50
2018-12-09T21:43:51.472Z,98609.95
2018-12-09T21:46:20.057Z,98615.84
2018-12-09T21:48:48.501Z,98622.86
2018-12-09T21:51:17.374Z,98616.88
2018-12-09T21:53:46.791Z,98623.44
2018-12-09T21:56:15.962Z,98638.77
2018-12-09T21:58:45.045Z,98648.23
2018-12-09T22:01:14.118Z,98651.83
2018-12-09T22:03:42.838Z,98652.37
2018-12-09T22:06:11.536Z,98646.89
2018-12-09T22:08:39.993Z,98654.75
2018-12-09T22:11:08.779Z,98656.91
2018-12-09T22:13:37.467Z,98658.61
2018-12-09T22:16:06.482Z,98666.97
2018-12-09T22:18:35.955Z,98667.52
2018-12-09T22:21:05.484Z,98670.76
2018-12-09T22:23:35.131Z,98671.40
2018-12-09T22:26:04.495Z,98679.59
2018-12-09T22:28:33.166Z,98700.87
2018-12-09T22:31:02.686Z,98708.89
2018-12-09T22:33:32.095Z,98718.47
2018-12-09T22:36:00.565Z,98727.36
2018-12-09T22:38:29.598Z,98721.09
2018-12-09T22:40:58.276Z,98727.57
2018-12-09T22:43:29.083Z,98726.97
2018-12-09T22:45:59.038Z,98732.60
2018-12-09T22:48:27.860Z,98735.25
2018-12-09T22:50:56.792Z,98747.70
2018-12-09T22:53:27.101Z,98748.60
2018-12-09T22:55:55.572Z,98753.86
2018-12-09T22:58:24.382Z,98757.59
2018-12-09T23:00:58.367Z,98754.03
2018-12-09T23:03:28.018Z,98758.22
2018-12-09T23:05:57.114Z,98757.21
2018-12-09T23:08:27.003Z,98765.39
2018-12-09T23:10:55.788Z,98768.58
2018-12-09T23:13:24.277Z,98764.16
2018-12-09T23:15:53.131Z,98773.91
2018-12-09T23:18:22.122Z,98782.65
2018-12-09T23:20:51.839Z,98785.49
2018-12-09T23:23:22.995Z,98790.84
2018-12-09T23:25:51.434Z,98789.91
2018-12-09T23:28:20.507Z,98792.02
2018-12-09T23:30:49.031Z,98799.73
2018-12-09T23:33:17.778Z,98799.48
2018-12-09T23:35:47.229Z,98809.70
2018-12-09T23:38:16.402Z,98809.11
2018-12-09T23:40:45.380Z,98814.03
2018-12-09T23:43:13.847Z,98821.78
2018-12-09T23:45:42.805Z,98820.05
2018-12-09T23:48:13.041Z,98819.92
2018-12-09T23:50:41.463Z,98831.75
2018-12-09T23:53:10.000Z,98836.28
2018-12-09T23:55:38.763Z,98832.77
2018-12-09T23:58:09.004Z,98833.24
